Time;durP1;ratioP1;P1;durP2;ratioP2;P2;SDS_P1;SDS_P2;PMS_P1;PMS_P2;Temp;Humidity;BMP_temperature;BMP_pressure;BME280_temperature;BME280_humidity;BME280_pressure;Samples;Min_cycle;Max_cycle;Signal;HPM_P1;HPM_P2
2023/03/21 00:01:33;;;;;;;24.92;18.48;;;;;;;;;;4997267;28;20112;-69
2023/03/21 00:03:58;;;;;;;25.25;18.58;;;;;;;;;;4995634;28;20027;-68
2023/03/21 00:06:24;;;;;;;21.05;17.40;;;;;;;;;;4996807;28;20057;-69
2023/03/21 00:08:49;;;;;;;24.13;17.73;;;;;;;;;;4979471;28;20034;-69
2023/03/21 00:11:15;;;;;;;21.95;17.27;;;;;;;;;;4996719;28;20087;-68
2023/03/21 00:13:43;;;;;;;23.35;17.02;;;;;;;;;;5011825;28;20033;-68
2023/03/21 00:16:14;;;;;;;21.30;16.35;;;;;;;;;;4996695;28;20034;-68
2023/03/21 00:18:40;;;;;;;;;;;;;;;;;;4997037;28;20145;-68
2023/03/21 00:21:06;;;;;;;20.60;16.27;;;;;;;;;;4996417;28;20301;-68
2023/03/21 00:23:31;;;;;;;19.52;16.17;;;;;;;;;;4996527;28;20034;-65
2023/03/21 00:25:57;;;;;;;21.35;17.17;;;;;;;;;;4995996;28;20027;-65
2023/03/21 00:28:23;;;;;;;19.42;16.88;;;;;;;;;;4978913;28;20489;-66
2023/03/21 00:30:49;;;;;;;19.92;16.85;;;;;;;;;;4995172;28;20121;-66
2023/03/21 00:33:14;;;;;;;20.98;17.10;;;;;;;;;;4978850;28;20482;-66
2023/03/21 00:35:42;;;;;;;20.70;16.60;;;;;;;;;;4978882;28;20474;-66
2023/03/21 00:38:08;;;;;;;22.23;17.65;;;;;;;;;;4994871;28;20036;-66
2023/03/21 00:40:33;;;;;;;23.40;17.98;;;;;;;;;;4996310;28;20080;-66
2023/03/21 00:43:00;;;;;;;23.60;18.65;;;;;;;;;;5011270;28;20023;-66
2023/03/21 00:45:26;;;;;;;24.77;18.80;;;;;;;;;;5011197;28;20040;-66
2023/03/21 00:47:52;;;;;;;22.98;18.98;;;;;;;;;;4996324;28;20486;-66
2023/03/21 00:50:17;;;;;;;25.50;19.42;;;;;;;;;;4996104;28;20107;-66
2023/03/21 00:52:43;;;;;;;25.38;18.98;;;;;;;;;;4995989;28;20132;-66
2023/03/21 00:55:12;;;;;;;26.05;20.85;;;;;;;;;;5011341;28;20026;-65
2023/03/21 00:57:41;;;;;;;27.15;21.20;;;;;;;;;;4995839;28;20030;-66
2023/03/21 01:00:11;;;;;;;25.55;19.85;;;;;;;;;;4995956;28;20084;-66
2023/03/21 01:02:37;;;;;;;24.07;19.40;;;;;;;;;;4995893;28;20030;-67
2023/03/21 01:05:05;;;;;;;26.40;19.75;;;;;;;;;;4994530;28;20018;-67
2023/03/21 01:08:03;;;;;;;25.77;19.25;;;;;;;;;;5029182;23;20047;-62
2023/03/21 01:10:29;;;;;;;23.58;18.20;;;;;;;;;;5013486;28;20050;-66
2023/03/21 01:12:55;;;;;;;26.70;19.67;;;;;;;;;;5015431;28;20083;-67
2023/03/21 01:15:20;;;;;;;25.90;20.15;;;;;;;;;;4996779;28;20105;-66
2023/03/21 01:17:46;;;;;;;26.45;19.67;;;;;;;;;;5015407;28;20045;-67
2023/03/21 01:20:11;;;;;;;23.13;19.05;;;;;;;;;;4981345;28;20026;-68
2023/03/21 01:22:37;;;;;;;24.13;19.02;;;;;;;;;;4981505;28;20508;-67
2023/03/21 01:25:02;;;;;;;23.08;17.85;;;;;;;;;;5015232;28;20018;-66
2023/03/21 01:27:28;;;;;;;21.73;18.30;;;;;;;;;;5014450;28;20112;-66
2023/03/21 01:29:53;;;;;;;22.15;18.00;;;;;;;;;;4997073;28;20025;-66
2023/03/21 01:32:19;;;;;;;21.90;17.33;;;;;;;;;;5010053;23;20062;-66
2023/03/21 01:34:45;;;;;;;21.15;17.23;;;;;;;;;;4977716;28;20085;-67
2023/03/21 01:37:10;;;;;;;19.23;16.17;;;;;;;;;;4961586;28;20030;-68
2023/03/21 01:39:43;;;;;;;20.17;16.08;;;;;;;;;;4976898;28;20487;-68
2023/03/21 01:42:11;;;;;;;20.27;16.48;;;;;;;;;;4961575;28;20037;-68
2023/03/21 01:45:10;;;;;;;20.83;16.15;;;;;;;;;;4961601;28;20130;-68
2023/03/21 01:47:42;;;;;;;16.35;14.38;;;;;;;;;;4948273;28;20057;-68
2023/03/21 01:50:21;;;;;;;17.00;15.20;;;;;;;;;;4963129;28;20030;-68
2023/03/21 01:53:27;;;;;;;16.67;14.88;;;;;;;;;;4969117;28;20073;-69
2023/03/21 01:55:53;;;;;;;18.42;14.80;;;;;;;;;;4977504;28;20490;-68
2023/03/21 01:58:44;;;;;;;16.73;14.48;;;;;;;;;;4964454;28;20026;-67
2023/03/21 02:01:27;;;;;;;14.50;12.98;;;;;;;;;;4963848;28;20030;-66
2023/03/21 02:03:55;;;;;;;13.52;12.15;;;;;;;;;;4978014;28;20026;-66
2023/03/21 02:06:32;;;;;;;12.95;11.65;;;;;;;;;;4993844;28;20055;-66
2023/03/21 02:09:08;;;;;;;13.10;11.75;;;;;;;;;;4994793;28;20034;-65
2023/03/21 02:11:35;;;;;;;13.38;12.07;;;;;;;;;;4977467;28;20041;-65
2023/03/21 02:14:01;;;;;;;14.13;12.65;;;;;;;;;;4961061;28;20026;-65
2023/03/21 02:16:40;;;;;;;13.98;12.45;;;;;;;;;;4976151;28;20062;-62
2023/03/21 02:19:22;;;;;;;13.77;12.05;;;;;;;;;;4994425;28;20385;-62
2023/03/21 02:21:52;;;;;;;13.52;11.77;;;;;;;;;;4977010;28;20034;-62
2023/03/21 02:24:35;;;;;;;13.70;12.27;;;;;;;;;;4977070;28;20025;-62
2023/03/21 02:27:01;;;;;;;13.80;12.40;;;;;;;;;;4977281;28;20034;-63
2023/03/21 02:29:36;;;;;;;13.80;12.07;;;;;;;;;;4961726;28;20041;-62
2023/03/21 02:32:16;;;;;;;13.77;12.15;;;;;;;;;;4976668;28;20049;-63
2023/03/21 02:34:57;;;;;;;13.55;12.07;;;;;;;;;;4976835;28;20034;-63
2023/03/21 02:37:45;;;;;;;12.10;10.85;;;;;;;;;;4960689;28;20097;-62
2023/03/21 02:40:14;;;;;;;13.35;11.35;;;;;;;;;;4976798;28;20038;-62
2023/03/21 02:42:49;;;;;;;13.32;11.95;;;;;;;;;;4976810;28;20023;-63
2023/03/21 02:45:19;;;;;;;13.13;11.77;;;;;;;;;;4976745;28;20054;-62
2023/03/21 02:47:58;;;;;;;12.45;11.23;;;;;;;;;;4994306;28;20022;-63
2023/03/21 02:50:37;;;;;;;12.30;11.00;;;;;;;;;;4976308;28;20118;-62
2023/03/21 02:53:05;;;;;;;13.00;11.75;;;;;;;;;;4976613;28;20058;-62
2023/03/21 02:55:32;;;;;;;12.32;11.13;;;;;;;;;;4976617;28;20589;-63
2023/03/21 02:58:01;;;;;;;12.63;11.35;;;;;;;;;;4976587;28;20397;-62
2023/03/21 03:00:32;;;;;;;12.13;10.90;;;;;;;;;;4976468;28;20033;-62
2023/03/21 03:02:58;;;;;;;11.65;10.45;;;;;;;;;;4976464;28;20027;-62
2023/03/21 03:05:24;;;;;;;13.05;11.65;;;;;;;;;;4960555;28;20060;-63
2023/03/21 03:08:04;;;;;;;12.80;10.95;;;;;;;;;;4993891;28;20038;-62
2023/03/21 03:10:38;;;;;;;12.02;10.65;;;;;;;;;;4993921;28;20052;-62
2023/03/21 03:13:21;;;;;;;12.23;11.02;;;;;;;;;;4993886;28;20035;-62
2023/03/21 03:16:01;;;;;;;12.90;11.65;;;;;;;;;;4993768;28;20026;-62
2023/03/21 03:18:31;;;;;;;14.07;12.57;;;;;;;;;;4976437;28;20049;-65
2023/03/21 03:21:04;;;;;;;13.15;11.75;;;;;;;;;;4993944;28;20029;-66
2023/03/21 03:23:43;;;;;;;14.02;12.05;;;;;;;;;;4976420;28;20105;-66
2023/03/21 03:29:00;;;;;;;13.68;12.20;;;;;;;;;;4998927;23;20051;-62
2023/03/21 03:31:28;;;;;;;12.60;11.18;;;;;;;;;;4956972;28;20089;-62
2023/03/21 03:33:59;;;;;;;12.93;11.55;;;;;;;;;;4957441;28;20378;-63
2023/03/21 03:36:28;;;;;;;15.05;12.88;;;;;;;;;;4958594;28;20490;-62
2023/03/21 03:38:54;;;;;;;14.00;12.48;;;;;;;;;;4981139;23;20089;-64
2023/03/21 03:41:22;;;;;;;15.18;13.20;;;;;;;;;;4999625;23;20058;-62
2023/03/21 03:43:58;;;;;;;15.20;12.90;;;;;;;;;;4956865;28;20513;-62
2023/03/21 03:46:32;;;;;;;13.43;12.07;;;;;;;;;;4989446;28;20086;-62
2023/03/21 03:49:05;;;;;;;17.33;12.80;;;;;;;;;;4956807;28;20070;-62
2023/03/21 03:51:35;;;;;;;14.27;12.63;;;;;;;;;;4956822;28;20122;-63
2023/03/21 03:54:19;;;;;;;13.82;12.35;;;;;;;;;;4956853;28;20026;-63
2023/03/21 03:56:45;;;;;;;14.52;12.98;;;;;;;;;;4956663;28;20038;-63
2023/03/21 03:59:11;;;;;;;15.98;13.73;;;;;;;;;;4956766;28;20035;-63
2023/03/21 04:01:54;;;;;;;15.02;13.18;;;;;;;;;;4944170;28;20113;-63
2023/03/21 04:04:21;;;;;;;15.00;13.00;;;;;;;;;;4960118;28;20427;-62
2023/03/21 04:06:50;;;;;;;15.93;13.95;;;;;;;;;;4944156;28;20123;-62
2023/03/21 04:09:18;;;;;;;16.20;13.93;;;;;;;;;;4960166;28;20031;-62
2023/03/21 04:11:44;;;;;;;15.98;13.25;;;;;;;;;;4977290;28;20034;-62
2023/03/21 04:14:09;;;;;;;17.02;13.90;;;;;;;;;;4977325;28;20035;-62
2023/03/21 04:16:35;;;;;;;16.58;14.05;;;;;;;;;;4959952;28;20030;-62
2023/03/21 04:19:01;;;;;;;15.70;13.65;;;;;;;;;;4959857;28;20026;-62
2023/03/21 04:21:27;;;;;;;16.33;14.25;;;;;;;;;;4977136;28;20034;-62
2023/03/21 04:23:53;;;;;;;17.45;14.07;;;;;;;;;;4976112;28;20110;-62
2023/03/21 04:26:23;;;;;;;18.15;14.30;;;;;;;;;;4959800;28;20122;-62
2023/03/21 04:29:08;;;;;;;15.63;12.98;;;;;;;;;;4976821;28;20480;-62
2023/03/21 04:32:00;;;;;;;17.48;13.57;;;;;;;;;;4976593;28;20038;-62
2023/03/21 04:34:27;;;;;;;17.38;14.15;;;;;;;;;;4959420;28;20114;-62
2023/03/21 04:36:55;;;;;;;16.10;13.25;;;;;;;;;;4959598;28;20035;-62
2023/03/21 04:39:21;;;;;;;16.77;13.48;;;;;;;;;;4943430;28;20211;-62
2023/03/21 04:41:48;;;;;;;19.52;14.60;;;;;;;;;;4959307;28;20034;-62
2023/03/21 04:44:15;;;;;;;19.42;14.38;;;;;;;;;;4959295;28;20113;-62
2023/03/21 04:46:40;;;;;;;20.08;14.88;;;;;;;;;;4959262;28;20026;-62
2023/03/21 04:49:07;;;;;;;19.20;14.20;;;;;;;;;;4959360;28;20045;-62
2023/03/21 04:51:32;;;;;;;18.02;14.23;;;;;;;;;;4976632;28;20110;-62
2023/03/21 04:53:58;;;;;;;21.42;15.32;;;;;;;;;;4959240;28;20042;-62
2023/03/21 04:56:30;;;;;;;20.60;14.90;;;;;;;;;;4959208;28;20023;-62
2023/03/21 04:58:56;;;;;;;20.10;15.60;;;;;;;;;;4943098;28;20034;-62
2023/03/21 05:01:21;;;;;;;19.75;14.57;;;;;;;;;;4976164;28;20556;-62
2023/03/21 05:03:47;;;;;;;19.58;15.05;;;;;;;;;;4958912;28;20046;-62
2023/03/21 05:06:13;;;;;;;17.98;14.15;;;;;;;;;;4958946;28;20114;-61
2023/03/21 05:08:38;;;;;;;20.55;14.68;;;;;;;;;;4959006;28;20026;-62
2023/03/21 05:11:04;;;;;;;21.60;14.93;;;;;;;;;;4943075;28;20413;-63
2023/03/21 05:13:29;;;;;;;20.77;15.65;;;;;;;;;;4942834;28;20034;-61
2023/03/21 05:15:55;;;;;;;20.83;15.48;;;;;;;;;;4976417;28;20031;-61
2023/03/21 05:18:25;;;;;;;21.58;15.90;;;;;;;;;;4975103;28;20132;-61
2023/03/21 05:21:10;;;;;;;20.65;15.75;;;;;;;;;;4956315;29;20042;-61
2023/03/21 05:23:38;;;;;;;25.80;16.77;;;;;;;;;;4955052;29;20050;-61
2023/03/21 05:26:07;;;;;;;25.60;17.25;;;;;;;;;;4971540;28;20027;-62
2023/03/21 05:28:39;;;;;;;23.15;16.80;;;;;;;;;;4955165;29;20023;-61
2023/03/21 05:31:05;;;;;;;25.40;16.55;;;;;;;;;;4939381;29;20510;-61
2023/03/21 05:33:31;;;;;;;21.75;16.25;;;;;;;;;;4971973;28;20055;-61
2023/03/21 05:35:57;;;;;;;20.95;16.17;;;;;;;;;;4956048;29;20513;-61
2023/03/21 05:38:26;;;;;;;23.33;16.42;;;;;;;;;;4940485;29;20035;-59
2023/03/21 05:40:52;;;;;;;23.05;16.88;;;;;;;;;;4971185;28;20380;-60
2023/03/21 05:43:18;;;;;;;21.08;16.17;;;;;;;;;;4955206;29;20089;-59
2023/03/21 05:45:44;;;;;;;24.35;17.80;;;;;;;;;;4939738;29;20031;-59
2023/03/21 05:48:09;;;;;;;25.00;18.33;;;;;;;;;;4955097;29;20031;-62
2023/03/21 05:50:49;;;;;;;26.63;18.52;;;;;;;;;;4938902;29;20026;-63
2023/03/21 05:53:17;;;;;;;27.75;19.23;;;;;;;;;;4970504;28;20398;-61
2023/03/21 05:55:43;;;;;;;24.17;17.73;;;;;;;;;;4938205;29;20046;-62
2023/03/21 05:58:14;;;;;;;25.98;18.48;;;;;;;;;;4938266;29;20459;-64
2023/03/21 06:00:45;;;;;;;31.85;20.05;;;;;;;;;;4954354;29;20034;-63
2023/03/21 06:03:20;;;;;;;32.95;21.92;;;;;;;;;;4953203;29;20024;-64
2023/03/21 06:05:58;;;;;;;32.53;21.73;;;;;;;;;;4956450;29;20047;-64
2023/03/21 06:11:27;;;;;;;32.70;22.40;;;;;;;;;;5050787;28;20053;-62
2023/03/21 06:14:15;;;;;;;34.42;23.13;;;;;;;;;;5046060;28;20035;-61
2023/03/21 06:16:41;;;;;;;35.45;24.13;;;;;;;;;;5019568;28;20488;-67
2023/03/21 06:19:07;;;;;;;38.38;25.00;;;;;;;;;;5035339;28;20069;-69
2023/03/21 06:21:53;;;;;;;40.35;25.08;;;;;;;;;;5035397;28;20024;-68
2023/03/21 06:24:19;;;;;;;38.63;24.35;;;;;;;;;;5052849;28;20033;-70
2023/03/21 06:26:45;;;;;;;39.75;24.92;;;;;;;;;;5035313;28;20021;-70
2023/03/21 06:29:11;;;;;;;39.95;26.27;;;;;;;;;;5035501;28;20029;-70
2023/03/21 06:31:36;;;;;;;37.83;25.95;;;;;;;;;;5035436;28;20449;-70
2023/03/21 06:34:03;;;;;;;44.67;26.00;;;;;;;;;;5019279;28;20059;-63
2023/03/21 06:36:29;;;;;;;36.38;23.90;;;;;;;;;;5035535;28;20056;-64
2023/03/21 06:38:54;;;;;;;35.92;22.75;;;;;;;;;;5035399;28;20036;-64
2023/03/21 06:41:20;;;;;;;34.42;22.73;;;;;;;;;;5053916;28;20033;-65
2023/03/21 06:43:56;;;;;;;36.63;22.73;;;;;;;;;;5053569;28;20369;-61
2023/03/21 06:46:21;;;;;;;38.15;24.17;;;;;;;;;;5035646;28;20029;-61
2023/03/21 06:48:47;;;;;;;37.72;24.38;;;;;;;;;;5035012;28;20040;-61
2023/03/21 06:51:14;;;;;;;36.33;23.92;;;;;;;;;;5034966;28;20037;-61
2023/03/21 06:53:49;;;;;;;37.97;23.33;;;;;;;;;;5035521;28;20029;-61
2023/03/21 06:56:23;;;;;;;38.30;24.63;;;;;;;;;;5053208;28;20447;-61
2023/03/21 06:58:49;;;;;;;33.35;22.13;;;;;;;;;;5034793;28;20112;-61
2023/03/21 07:01:26;;;;;;;31.52;19.38;;;;;;;;;;5035536;28;20055;-61
2023/03/21 07:04:00;;;;;;;31.38;20.17;;;;;;;;;;5053328;28;20017;-61
2023/03/21 07:06:27;;;;;;;30.48;18.70;;;;;;;;;;5035432;28;20028;-61
2023/03/21 07:08:54;;;;;;;30.88;19.13;;;;;;;;;;5035066;28;20052;-61
2023/03/21 07:11:20;;;;;;;33.38;21.20;;;;;;;;;;5034626;28;20053;-61
2023/03/21 07:13:47;;;;;;;23.40;16.02;;;;;;;;;;5033671;28;20032;-61
2023/03/21 07:16:14;;;;;;;31.33;18.52;;;;;;;;;;5033332;28;20021;-61
2023/03/21 07:18:39;;;;;;;30.83;19.85;;;;;;;;;;5050626;28;20037;-61
2023/03/21 07:21:05;;;;;;;27.80;18.75;;;;;;;;;;5032805;28;20029;-61
2023/03/21 07:23:31;;;;;;;29.20;18.75;;;;;;;;;;5016529;28;20087;-61
2023/03/21 07:25:56;;;;;;;24.08;13.43;;;;;;;;;;5033494;28;20021;-61
2023/03/21 07:28:22;;;;;;;25.13;16.83;;;;;;;;;;5016911;28;20051;-61
2023/03/21 07:30:55;;;;;;;22.95;15.15;;;;;;;;;;5033625;28;20064;-61
2023/03/21 07:33:22;;;;;;;21.42;14.50;;;;;;;;;;5051428;28;20124;-61
2023/03/21 07:35:51;;;;;;;25.25;14.68;;;;;;;;;;5033960;28;20057;-61
2023/03/21 07:38:16;;;;;;;22.10;14.13;;;;;;;;;;5037216;28;20117;-61
2023/03/21 07:40:42;;;;;;;19.25;12.23;;;;;;;;;;5020974;28;20104;-61
2023/03/21 07:43:08;;;;;;;17.75;11.45;;;;;;;;;;5055484;28;20476;-61
2023/03/21 07:45:33;;;;;;;15.05;10.30;;;;;;;;;;5021279;28;20032;-61
2023/03/21 07:47:59;;;;;;;18.38;12.25;;;;;;;;;;5037507;28;20028;-61
2023/03/21 07:50:24;;;;;;;17.80;12.43;;;;;;;;;;5055828;28;20093;-61
2023/03/21 07:52:50;;;;;;;17.10;11.80;;;;;;;;;;5055657;28;20468;-61
2023/03/21 07:55:16;;;;;;;14.70;10.60;;;;;;;;;;5055874;28;20036;-61
2023/03/21 07:57:41;;;;;;;18.20;11.52;;;;;;;;;;5037368;28;20388;-61
2023/03/21 08:00:07;;;;;;;15.93;11.15;;;;;;;;;;5055333;28;20469;-61
2023/03/21 08:02:38;;;;;;;14.95;10.77;;;;;;;;;;5054886;28;20454;-61
2023/03/21 08:05:04;;;;;;;15.20;10.73;;;;;;;;;;5055017;28;20029;-61
2023/03/21 08:07:29;;;;;;;17.33;10.20;;;;;;;;;;5037077;28;20381;-61
2023/03/21 08:09:55;;;;;;;13.57;9.68;;;;;;;;;;5054862;28;20068;-61
2023/03/21 08:12:20;;;;;;;15.43;9.52;;;;;;;;;;5054884;28;20661;-61
2023/03/21 08:14:45;;;;;;;13.95;9.57;;;;;;;;;;5055327;28;20036;-61
2023/03/21 08:17:11;;;;;;;11.98;9.02;;;;;;;;;;5037070;28;20056;-61
2023/03/21 08:19:36;;;;;;;12.60;9.30;;;;;;;;;;5054649;28;20082;-61
2023/03/21 08:22:04;;;;;;;14.32;9.90;;;;;;;;;;5036709;28;20546;-61
2023/03/21 08:24:30;;;;;;;14.63;9.98;;;;;;;;;;5054670;28;20013;-61
2023/03/21 08:26:56;;;;;;;12.73;9.13;;;;;;;;;;5020222;28;20036;-61
2023/03/21 08:29:21;;;;;;;11.70;9.20;;;;;;;;;;5054599;28;20028;-61
2023/03/21 08:31:47;;;;;;;11.93;9.52;;;;;;;;;;5055001;28;20472;-64
2023/03/21 08:34:12;;;;;;;14.57;10.68;;;;;;;;;;5037253;28;20499;-64
2023/03/21 08:36:39;;;;;;;12.60;9.38;;;;;;;;;;5037003;28;20025;-64
2023/03/21 08:39:05;;;;;;;13.02;10.68;;;;;;;;;;5054676;28;20033;-62
2023/03/21 08:41:32;;;;;;;13.38;10.52;;;;;;;;;;5054677;28;20380;-63
2023/03/21 08:43:57;;;;;;;13.90;9.80;;;;;;;;;;5055286;28;20028;-64
2023/03/21 08:46:25;;;;;;;14.88;11.13;;;;;;;;;;5055299;28;20013;-64
2023/03/21 08:48:51;;;;;;;14.75;11.80;;;;;;;;;;5019226;28;20549;-64
2023/03/21 08:51:16;;;;;;;16.98;11.45;;;;;;;;;;5054035;28;20056;-64
2023/03/21 08:53:42;;;;;;;12.25;9.13;;;;;;;;;;5036149;28;20032;-64
2023/03/21 08:56:08;;;;;;;12.88;9.73;;;;;;;;;;5054030;28;20037;-64
2023/03/21 08:58:34;;;;;;;11.45;9.40;;;;;;;;;;5053845;28;20036;-64
2023/03/21 09:01:10;;;;;;;11.40;8.68;;;;;;;;;;5054004;28;20021;-64
2023/03/21 09:03:38;;;;;;;15.73;9.20;;;;;;;;;;5053907;28;20044;-64
2023/03/21 09:06:04;;;;;;;15.00;10.25;;;;;;;;;;5053354;28;20465;-64
2023/03/21 09:08:29;;;;;;;15.38;10.50;;;;;;;;;;5053702;28;20044;-64
2023/03/21 09:10:55;;;;;;;16.30;10.38;;;;;;;;;;5053537;28;20095;-64
2023/03/21 09:13:20;;;;;;;14.63;10.25;;;;;;;;;;5053557;28;20036;-64
2023/03/21 09:15:46;;;;;;;13.45;11.02;;;;;;;;;;5035570;28;20036;-64
2023/03/21 09:18:16;;;;;;;12.82;10.20;;;;;;;;;;5035669;28;20435;-65
2023/03/21 09:20:43;;;;;;;12.43;9.75;;;;;;;;;;5053567;28;20017;-64
2023/03/21 09:23:09;;;;;;;11.27;9.50;;;;;;;;;;5035676;28;20025;-64
2023/03/21 09:25:35;;;;;;;14.32;9.88;;;;;;;;;;5053317;28;20120;-64
2023/03/21 09:28:03;;;;;;;12.20;9.80;;;;;;;;;;5035112;28;20061;-64
2023/03/21 09:30:29;;;;;;;10.73;8.65;;;;;;;;;;5035523;28;20078;-65
2023/03/21 09:32:54;;;;;;;10.05;8.05;;;;;;;;;;5053352;28;20431;-64
2023/03/21 09:35:20;;;;;;;12.27;8.65;;;;;;;;;;5052921;28;20033;-65
2023/03/21 09:37:47;;;;;;;11.50;8.45;;;;;;;;;;5053272;28;20507;-64
2023/03/21 09:40:39;;;;;;;12.93;10.57;;;;;;;;;;5053282;28;20044;-64
2023/03/21 09:43:14;;;;;;;14.55;10.80;;;;;;;;;;5053848;28;20423;-64
2023/03/21 09:45:43;;;;;;;14.13;10.55;;;;;;;;;;5054407;28;20032;-64
2023/03/21 09:48:16;;;;;;;12.77;10.07;;;;;;;;;;5053716;28;20039;-64
2023/03/21 09:50:42;;;;;;;15.57;10.73;;;;;;;;;;5053252;28;20449;-65
2023/03/21 09:53:07;;;;;;;15.15;11.55;;;;;;;;;;5053244;28;20056;-64
2023/03/21 09:55:34;;;;;;;15.18;11.88;;;;;;;;;;5053138;28;20033;-61
2023/03/21 09:58:00;;;;;;;16.73;11.68;;;;;;;;;;5035212;28;20021;-61
2023/03/21 10:00:29;;;;;;;16.60;11.85;;;;;;;;;;5052056;28;20029;-61
2023/03/21 10:02:58;;;;;;;14.02;11.30;;;;;;;;;;5052870;28;20028;-61
2023/03/21 10:05:29;;;;;;;12.20;9.88;;;;;;;;;;5052899;28;20032;-61
2023/03/21 10:07:57;;;;;;;12.45;9.63;;;;;;;;;;5052738;28;20079;-61
2023/03/21 10:10:49;;;;;;;12.70;10.05;;;;;;;;;;5034606;28;20081;-61
2023/03/21 10:13:28;;;;;;;12.20;10.05;;;;;;;;;;5030578;28;20045;-64
2023/03/21 10:15:57;;;;;;;16.75;11.75;;;;;;;;;;5053253;28;20108;-64
2023/03/21 10:18:25;;;;;;;14.20;11.65;;;;;;;;;;5052400;28;20029;-64
2023/03/21 10:20:50;;;;;;;11.98;10.00;;;;;;;;;;5052495;28;20029;-64
2023/03/21 10:23:17;;;;;;;11.15;9.20;;;;;;;;;;5052195;28;20047;-65
2023/03/21 10:25:45;;;;;;;12.73;10.43;;;;;;;;;;5052474;28;20056;-61
2023/03/21 10:28:15;;;;;;;12.70;11.40;;;;;;;;;;5052498;28;20071;-61
2023/03/21 10:30:41;;;;;;;16.77;11.55;;;;;;;;;;5052486;28;20488;-63
2023/03/21 10:33:25;;;;;;;14.05;12.10;;;;;;;;;;5052623;28;20029;-64
2023/03/21 10:35:54;;;;;;;14.77;12.00;;;;;;;;;;5053352;28;20036;-64
2023/03/21 10:38:21;;;;;;;16.08;12.77;;;;;;;;;;5052896;28;20029;-65
2023/03/21 10:40:47;;;;;;;16.30;12.60;;;;;;;;;;5052202;28;20538;-64
2023/03/21 10:43:24;;;;;;;14.98;12.30;;;;;;;;;;5052433;28;20027;-64
2023/03/21 10:45:51;;;;;;;14.23;12.07;;;;;;;;;;5034269;28;20082;-64
2023/03/21 10:48:16;;;;;;;13.55;12.15;;;;;;;;;;5052094;28;20051;-65
2023/03/21 10:50:43;;;;;;;13.65;12.00;;;;;;;;;;5034267;28;20020;-64
2023/03/21 10:53:14;;;;;;;16.20;12.77;;;;;;;;;;5052506;28;20047;-64
2023/03/21 10:55:40;;;;;;;13.25;11.75;;;;;;;;;;5052493;28;20033;-64
2023/03/21 10:58:09;;;;;;;13.40;11.93;;;;;;;;;;5051968;28;20389;-63
2023/03/21 11:00:38;;;;;;;15.40;11.80;;;;;;;;;;5052054;28;20032;-61
2023/03/21 11:03:06;;;;;;;16.00;11.68;;;;;;;;;;5053018;28;20029;-62
2023/03/21 11:05:41;;;;;;;16.60;12.73;;;;;;;;;;5052377;28;20499;-61
2023/03/21 11:08:11;;;;;;;18.42;14.70;;;;;;;;;;5052216;28;20032;-61
2023/03/21 11:10:46;;;;;;;16.17;13.05;;;;;;;;;;5035489;28;20037;-63
2023/03/21 11:13:26;;;;;;;13.65;11.57;;;;;;;;;;5038870;28;20039;-61
2023/03/21 11:15:53;;;;;;;12.10;9.48;;;;;;;;;;5056404;28;20058;-61
2023/03/21 11:18:20;;;;;;;14.70;12.88;;;;;;;;;;5058423;28;20044;-61
2023/03/21 11:21:15;;;;;;;19.70;13.48;;;;;;;;;;5058881;28;20031;-61
2023/03/21 11:23:47;;;;;;;15.02;11.18;;;;;;;;;;5034304;28;20087;-62
2023/03/21 11:26:22;;;;;;;15.10;11.45;;;;;;;;;;5056491;28;20038;-61
2023/03/21 11:28:48;;;;;;;9.65;8.10;;;;;;;;;;5056699;28;20029;-61
2023/03/21 11:31:15;;;;;;;8.85;7.68;;;;;;;;;;5056731;28;20473;-61
2023/03/21 11:33:44;;;;;;;8.98;8.05;;;;;;;;;;5056458;28;20029;-61
2023/03/21 11:36:19;;;;;;;9.98;8.88;;;;;;;;;;5038442;28;20036;-61
2023/03/21 11:38:52;;;;;;;11.68;9.95;;;;;;;;;;5056329;28;20063;-61
2023/03/21 11:41:27;;;;;;;13.25;9.98;;;;;;;;;;5056547;28;20025;-61
2023/03/21 11:43:53;;;;;;;12.95;10.15;;;;;;;;;;5056441;28;20033;-61
2023/03/21 11:46:28;;;;;;;13.93;10.32;;;;;;;;;;5038243;28;20404;-61
2023/03/21 11:48:54;;;;;;;10.85;9.75;;;;;;;;;;5056333;28;20031;-61
2023/03/21 11:51:31;;;;;;;12.45;9.88;;;;;;;;;;5056159;28;20033;-61
2023/03/21 11:53:57;;;;;;;12.00;9.30;;;;;;;;;;5037207;28;20037;-61
2023/03/21 11:56:33;;;;;;;9.88;7.55;;;;;;;;;;5037028;28;20095;-61
2023/03/21 11:59:01;;;;;;;9.90;8.65;;;;;;;;;;5037062;28;20129;-61
2023/03/21 12:01:39;;;;;;;14.45;10.80;;;;;;;;;;5037222;28;20033;-61
2023/03/21 12:04:22;;;;;;;12.07;9.32;;;;;;;;;;5055008;28;20049;-61
2023/03/21 12:07:01;;;;;;;13.50;10.45;;;;;;;;;;5055023;28;20035;-61
2023/03/21 12:09:30;;;;;;;13.18;10.45;;;;;;;;;;5036976;28;20040;-61
2023/03/21 12:11:55;;;;;;;11.50;8.63;;;;;;;;;;5037277;28;20104;-61
2023/03/21 12:14:25;;;;;;;7.38;6.70;;;;;;;;;;5054800;28;20120;-61
2023/03/21 12:17:17;;;;;;;10.27;8.95;;;;;;;;;;5037015;28;20084;-63
2023/03/21 12:19:43;;;;;;;10.70;9.05;;;;;;;;;;5016392;28;20124;-64
2023/03/21 12:22:29;;;;;;;9.20;7.95;;;;;;;;;;5053505;28;20447;-64
2023/03/21 12:24:56;;;;;;;8.60;7.70;;;;;;;;;;5036284;28;20170;-64
2023/03/21 12:27:24;;;;;;;11.50;8.75;;;;;;;;;;5036703;28;20048;-64
2023/03/21 12:30:15;;;;;;;11.98;8.52;;;;;;;;;;5054549;28;20032;-64
2023/03/21 12:32:50;;;;;;;10.77;8.02;;;;;;;;;;5016223;28;20037;-64
2023/03/21 12:35:33;;;;;;;10.70;8.90;;;;;;;;;;5054429;28;20029;-64
2023/03/21 12:38:13;;;;;;;12.93;10.40;;;;;;;;;;5054427;28;20225;-64
2023/03/21 12:40:41;;;;;;;12.35;10.27;;;;;;;;;;5054327;28;20025;-64
2023/03/21 12:43:25;;;;;;;13.55;10.20;;;;;;;;;;5036389;28;20064;-64
2023/03/21 12:45:54;;;;;;;13.50;10.68;;;;;;;;;;5019686;28;20423;-64
2023/03/21 12:48:24;;;;;;;14.10;10.00;;;;;;;;;;5053833;28;20107;-64
2023/03/21 12:50:51;;;;;;;13.88;10.32;;;;;;;;;;5036203;28;20071;-64
2023/03/21 12:53:22;;;;;;;15.88;11.77;;;;;;;;;;5054072;28;20033;-64
2023/03/21 12:55:48;;;;;;;12.93;11.00;;;;;;;;;;5053935;28;20036;-64
2023/03/21 12:58:17;;;;;;;11.13;9.63;;;;;;;;;;5053643;28;20037;-64
2023/03/21 13:00:42;;;;;;;14.38;10.52;;;;;;;;;;5069297;28;20414;-64
2023/03/21 13:03:13;;;;;;;16.23;11.05;;;;;;;;;;5036129;28;20171;-64
2023/03/21 13:05:38;;;;;;;;;;;;;;;;;;5054287;28;20025;-64
2023/03/21 13:08:03;;;;;;;16.07;10.77;;;;;;;;;;5053981;28;19909;-64
2023/03/21 13:10:29;;;;;;;11.75;9.45;;;;;;;;;;5053459;28;20631;-64
2023/03/21 13:13:00;;;;;;;12.43;9.95;;;;;;;;;;5054102;28;20095;-64
2023/03/21 13:15:30;;;;;;;14.32;10.77;;;;;;;;;;5053858;28;20428;-64
2023/03/21 13:18:03;;;;;;;15.25;11.90;;;;;;;;;;5035917;28;20419;-64
2023/03/21 13:20:43;;;;;;;15.93;11.75;;;;;;;;;;5035751;28;20377;-64
2023/03/21 13:23:08;;;;;;;15.55;12.23;;;;;;;;;;5035874;28;20033;-64
2023/03/21 13:25:40;;;;;;;13.65;10.93;;;;;;;;;;5035601;28;20024;-64
2023/03/21 13:28:05;;;;;;;16.50;13.10;;;;;;;;;;5053483;28;20031;-64
2023/03/21 13:30:31;;;;;;;18.05;13.25;;;;;;;;;;5053646;28;20380;-64
2023/03/21 13:33:00;;;;;;;17.17;12.35;;;;;;;;;;5035932;28;20032;-64
2023/03/21 13:35:39;;;;;;;17.98;13.68;;;;;;;;;;5054123;28;20480;-64
2023/03/21 13:38:42;;;;;;;20.35;14.23;;;;;;;;;;5053434;28;20036;-64
2023/03/21 13:41:07;;;;;;;15.00;11.98;;;;;;;;;;4937148;29;20071;-64
2023/03/21 13:43:32;;;;;;;15.77;12.00;;;;;;;;;;5015487;28;20083;-64
2023/03/21 13:46:22;;;;;;;14.25;11.30;;;;;;;;;;5019730;28;20033;-64
2023/03/21 13:48:51;;;;;;;17.85;12.65;;;;;;;;;;5036141;28;20032;-64
2023/03/21 13:51:21;;;;;;;17.13;12.85;;;;;;;;;;5035797;28;20091;-64
2023/03/21 13:53:58;;;;;;;17.63;13.43;;;;;;;;;;5052826;28;20104;-64
2023/03/21 13:56:23;;;;;;;22.15;15.07;;;;;;;;;;5053164;28;20029;-64
2023/03/21 13:58:50;;;;;;;29.67;19.70;;;;;;;;;;5034996;28;20040;-64
2023/03/21 14:01:19;;;;;;;19.02;14.35;;;;;;;;;;5035153;28;20120;-64
2023/03/21 14:03:46;;;;;;;17.83;14.25;;;;;;;;;;5053093;28;20029;-64
2023/03/21 14:06:11;;;;;;;22.92;18.02;;;;;;;;;;5053300;28;20041;-64
2023/03/21 14:08:38;;;;;;;31.85;18.83;;;;;;;;;;5035079;28;20075;-64
2023/03/21 14:11:06;;;;;;;27.10;16.85;;;;;;;;;;5052726;28;20556;-64
2023/03/21 14:13:31;;;;;;;32.22;16.92;;;;;;;;;;5052836;28;20027;-64
2023/03/21 14:16:07;;;;;;;23.02;14.23;;;;;;;;;;5034932;28;20467;-64
2023/03/21 14:18:38;;;;;;;21.88;13.80;;;;;;;;;;5052714;28;20041;-64
2023/03/21 14:21:04;;;;;;;20.80;13.88;;;;;;;;;;5034909;28;20033;-64
2023/03/21 14:23:29;;;;;;;18.23;12.93;;;;;;;;;;5052688;28;20025;-64
2023/03/21 14:25:54;;;;;;;15.80;11.88;;;;;;;;;;5034954;28;20025;-64
2023/03/21 14:28:25;;;;;;;15.50;11.93;;;;;;;;;;5054682;28;20104;-61
2023/03/21 14:30:53;;;;;;;17.30;11.43;;;;;;;;;;5034930;28;20029;-61
2023/03/21 14:33:46;;;;;;;15.60;11.85;;;;;;;;;;5052925;28;20136;-61
2023/03/21 14:36:19;;;;;;;12.90;10.52;;;;;;;;;;5052488;28;20437;-61
2023/03/21 14:38:53;;;;;;;14.13;11.43;;;;;;;;;;5034462;28;20031;-62
2023/03/21 14:41:20;;;;;;;14.45;10.82;;;;;;;;;;5034899;28;20123;-61
2023/03/21 14:43:59;;;;;;;14.60;10.90;;;;;;;;;;5052513;28;20017;-62